CPX718 Details

Departure: Juan Santamar?a International Airport (MROC)
Arrival: Miami International Airport (KMIA)
Route: UCA UA301 URSUS FLIPR6


Current Weather Information
MROC 232300Z 31005KT 9999 BCFG FEW005 SCT030 BKN100 22/21 A2994 NOSIG
KMIA 232353Z 04014G20KT 10SM SCT033 27/19 A3008 RMK AO2 SLP185 T02720189 10311 20272 53003